sensor_id;sensor_type;location;lat;lon;timestamp;pressure;altitude;pressure_sealevel;temperature;humidity
25161;BME280;13125;50.224;19.070;2022-07-06T00:00:30;98372.39;;;21.17;92.98
25161;BME280;13125;50.224;19.070;2022-07-06T00:02:05;98371.17;;;21.14;92.93
25161;BME280;13125;50.224;19.070;2022-07-06T00:03:35;98367.70;;;21.14;93.72
25161;BME280;13125;50.224;19.070;2022-07-06T00:05:07;98373.88;;;21.14;93.54
25161;BME280;13125;50.224;19.070;2022-07-06T00:06:40;98375.01;;;21.13;93.21
25161;BME280;13125;50.224;19.070;2022-07-06T00:08:11;98373.45;;;21.12;93.46
25161;BME280;13125;50.224;19.070;2022-07-06T00:09:43;98374.12;;;21.09;93.62
25161;BME280;13125;50.224;19.070;2022-07-06T00:11:17;98367.97;;;21.09;93.65
25161;BME280;13125;50.224;19.070;2022-07-06T00:12:51;98376.41;;;21.07;93.85
25161;BME280;13125;50.224;19.070;2022-07-06T00:14:21;98378.65;;;21.05;93.53
25161;BME280;13125;50.224;19.070;2022-07-06T00:15:54;98380.92;;;21.03;93.41
25161;BME280;13125;50.224;19.070;2022-07-06T00:17:24;98376.66;;;21.02;93.65
25161;BME280;13125;50.224;19.070;2022-07-06T00:18:53;98376.20;;;21.00;93.76
25161;BME280;13125;50.224;19.070;2022-07-06T00:20:23;98377.34;;;20.99;93.75
25161;BME280;13125;50.224;19.070;2022-07-06T00:21:55;98374.19;;;20.97;93.33
25161;BME280;13125;50.224;19.070;2022-07-06T00:23:25;98376.47;;;20.95;93.72
25161;BME280;13125;50.224;19.070;2022-07-06T00:24:59;98371.07;;;20.95;93.48
25161;BME280;13125;50.224;19.070;2022-07-06T00:26:32;98377.60;;;20.94;93.76
25161;BME280;13125;50.224;19.070;2022-07-06T00:28:08;98383.00;;;20.94;93.00
25161;BME280;13125;50.224;19.070;2022-07-06T00:29:41;98384.90;;;20.94;93.59
25161;BME280;13125;50.224;19.070;2022-07-06T00:31:11;98385.23;;;20.92;93.07
25161;BME280;13125;50.224;19.070;2022-07-06T00:32:49;98372.89;;;20.91;93.30
25161;BME280;13125;50.224;19.070;2022-07-06T00:34:22;98382.55;;;20.92;93.83
25161;BME280;13125;50.224;19.070;2022-07-06T00:35:54;98380.50;;;20.89;93.07
25161;BME280;13125;50.224;19.070;2022-07-06T00:37:30;98383.19;;;20.89;93.49
25161;BME280;13125;50.224;19.070;2022-07-06T00:39:03;98378.94;;;20.88;93.58
25161;BME280;13125;50.224;19.070;2022-07-06T00:40:38;98385.46;;;20.87;93.79
25161;BME280;13125;50.224;19.070;2022-07-06T00:42:08;98389.72;;;20.88;93.89
25161;BME280;13125;50.224;19.070;2022-07-06T00:43:52;98391.28;;;20.89;93.76
25161;BME280;13125;50.224;19.070;2022-07-06T00:45:19;98394.35;;;20.88;93.22
25161;BME280;13125;50.224;19.070;2022-07-06T00:46:56;98388.16;;;20.87;93.58
25161;BME280;13125;50.224;19.070;2022-07-06T00:48:29;98394.35;;;20.88;94.00
25161;BME280;13125;50.224;19.070;2022-07-06T00:50:06;98389.72;;;20.88;93.78
25161;BME280;13125;50.224;19.070;2022-07-06T00:51:37;98390.86;;;20.87;93.49
25161;BME280;13125;50.224;19.070;2022-07-06T00:53:12;98391.99;;;20.86;92.78
25161;BME280;13125;50.224;19.070;2022-07-06T00:54:42;98390.40;;;20.85;93.38
25161;BME280;13125;50.224;19.070;2022-07-06T00:56:11;98384.92;;;20.82;93.25
25161;BME280;13125;50.224;19.070;2022-07-06T00:57:44;98386.85;;;20.81;93.23
25161;BME280;13125;50.224;19.070;2022-07-06T00:59:17;98388.67;;;20.77;92.76
25161;BME280;13125;50.224;19.070;2022-07-06T01:00:49;98399.80;;;20.76;93.04
25161;BME280;13125;50.224;19.070;2022-07-06T01:02:24;98393.95;;;20.74;92.12
25161;BME280;13125;50.224;19.070;2022-07-06T01:03:55;98390.02;;;20.71;92.67
25161;BME280;13125;50.224;19.070;2022-07-06T01:05:25;98389.25;;;20.71;93.20
25161;BME280;13125;50.224;19.070;2022-07-06T01:06:58;98399.25;;;20.70;92.99
25161;BME280;13125;50.224;19.070;2022-07-06T01:08:28;98396.09;;;20.68;92.53
25161;BME280;13125;50.224;19.070;2022-07-06T01:09:58;98390.70;;;20.68;92.86
25161;BME280;13125;50.224;19.070;2022-07-06T01:11:33;98390.70;;;20.68;93.19
25161;BME280;13125;50.224;19.070;2022-07-06T01:13:11;98395.33;;;20.68;93.12
25161;BME280;13125;50.224;19.070;2022-07-06T01:14:49;98387.58;;;20.66;93.09
25161;BME280;13125;50.224;19.070;2022-07-06T01:16:19;98386.02;;;20.65;93.19
25161;BME280;13125;50.224;19.070;2022-07-06T01:17:54;98386.02;;;20.65;92.79
25161;BME280;13125;50.224;19.070;2022-07-06T01:19:26;98388.25;;;20.63;92.37
25161;BME280;13125;50.224;19.070;2022-07-06T01:21:11;98387.91;;;20.65;92.43
25161;BME280;13125;50.224;19.070;2022-07-06T01:22:33;98387.12;;;20.64;92.56
25161;BME280;13125;50.224;19.070;2022-07-06T01:24:03;98391.84;;;20.67;92.97
25161;BME280;13125;50.224;19.070;2022-07-06T01:25:37;98384.42;;;20.64;92.73
25161;BME280;13125;50.224;19.070;2022-07-06T01:27:07;98389.81;;;20.64;92.43
25161;BME280;13125;50.224;19.070;2022-07-06T01:28:41;98392.87;;;20.63;91.86
25161;BME280;13125;50.224;19.070;2022-07-06T01:30:19;98385.47;;;20.60;91.85
25161;BME280;13125;50.224;19.070;2022-07-06T01:31:50;98391.99;;;20.59;92.04
25161;BME280;13125;50.224;19.070;2022-07-06T01:33:20;98386.48;;;20.55;91.79
25161;BME280;13125;50.224;19.070;2022-07-06T01:34:53;98388.75;;;20.53;91.98
25161;BME280;13125;50.224;19.070;2022-07-06T01:36:25;98379.87;;;20.53;92.57
25161;BME280;13125;50.224;19.070;2022-07-06T01:37:57;98376.41;;;20.52;92.32
25161;BME280;13125;50.224;19.070;2022-07-06T01:39:28;98379.44;;;20.51;92.25
25161;BME280;13125;50.224;19.070;2022-07-06T01:41:06;98375.94;;;20.50;92.48
25161;BME280;13125;50.224;19.070;2022-07-06T01:42:38;98380.91;;;20.48;92.31
25161;BME280;13125;50.224;19.070;2022-07-06T01:44:13;98383.14;;;20.46;92.31
25161;BME280;13125;50.224;19.070;2022-07-06T01:45:47;98383.14;;;20.46;92.37
25161;BME280;13125;50.224;19.070;2022-07-06T01:47:22;98375.73;;;20.43;92.01
25161;BME280;13125;50.224;19.070;2022-07-06T01:48:53;98377.54;;;20.39;91.94
25161;BME280;13125;50.224;19.070;2022-07-06T01:50:23;98387.46;;;20.35;91.98
25161;BME280;13125;50.224;19.070;2022-07-06T01:51:53;98381.61;;;20.33;92.06
25161;BME280;13125;50.224;19.070;2022-07-06T01:53:23;98380.39;;;20.31;91.55
25161;BME280;13125;50.224;19.070;2022-07-06T01:54:56;98378.03;;;20.29;92.26
25161;BME280;13125;50.224;19.070;2022-07-06T01:56:25;98381.39;;;20.26;92.23
25161;BME280;13125;50.224;19.070;2022-07-06T01:57:58;98382.86;;;20.24;92.34
25161;BME280;13125;50.224;19.070;2022-07-06T01:59:33;98380.88;;;20.21;92.34
25161;BME280;13125;50.224;19.070;2022-07-06T02:01:11;98386.59;;;20.19;92.47
25161;BME280;13125;50.224;19.070;2022-07-06T02:02:38;98386.93;;;20.18;92.43
25161;BME280;13125;50.224;19.070;2022-07-06T02:04:11;98386.13;;;20.17;92.55
25161;BME280;13125;50.224;19.070;2022-07-06T02:05:46;98388.83;;;20.17;92.79
25161;BME280;13125;50.224;19.070;2022-07-06T02:07:16;98386.13;;;20.17;92.85
25161;BME280;13125;50.224;19.070;2022-07-06T02:08:46;98388.83;;;20.17;92.84
25161;BME280;13125;50.224;19.070;2022-07-06T02:10:19;98391.19;;;20.19;92.35
25161;BME280;13125;50.224;19.070;2022-07-06T02:11:49;98388.49;;;20.19;92.37
25161;BME280;13125;50.224;19.070;2022-07-06T02:13:21;98383.10;;;20.19;92.33
25161;BME280;13125;50.224;19.070;2022-07-06T02:14:53;98387.03;;;20.21;92.60
25161;BME280;13125;50.224;19.070;2022-07-06T02:16:26;98395.11;;;20.21;92.38
25161;BME280;13125;50.224;19.070;2022-07-06T02:18:01;98391.28;;;20.22;91.99
25161;BME280;13125;50.224;19.070;2022-07-06T02:19:36;98380.08;;;20.20;91.96
25161;BME280;13125;50.224;19.070;2022-07-06T02:21:07;98385.46;;;20.20;92.26
25161;BME280;13125;50.224;19.070;2022-07-06T02:22:42;98380.75;;;20.17;91.98
25161;BME280;13125;50.224;19.070;2022-07-06T02:24:20;98383.77;;;20.16;92.03
25161;BME280;13125;50.224;19.070;2022-07-06T02:25:53;98376.82;;;20.15;91.99
25161;BME280;13125;50.224;19.070;2022-07-06T02:27:25;98390.63;;;20.13;91.95
25161;BME280;13125;50.224;19.070;2022-07-06T02:28:54;98379.85;;;20.13;92.05
25161;BME280;13125;50.224;19.070;2022-07-06T02:30:27;98382.11;;;20.11;91.90
25161;BME280;13125;50.224;19.070;2022-07-06T02:32:00;98383.25;;;20.10;91.40
25161;BME280;13125;50.224;19.070;2022-07-06T02:33:35;98385.45;;;20.08;91.95
25161;BME280;13125;50.224;19.070;2022-07-06T02:35:11;98378.95;;;20.09;91.42
25161;BME280;13125;50.224;19.070;2022-07-06T02:36:45;98380.39;;;20.07;91.82
25161;BME280;13125;50.224;19.070;2022-07-06T02:38:22;98378.03;;;20.05;91.95
25161;BME280;13125;50.224;19.070;2022-07-06T02:39:57;98379.63;;;20.06;92.01
25161;BME280;13125;50.224;19.070;2022-07-06T02:41:27;98380.73;;;20.05;92.00
25161;BME280;13125;50.224;19.070;2022-07-06T02:42:57;98378.03;;;20.05;92.10
25161;BME280;13125;50.224;19.070;2022-07-06T02:44:32;98388.81;;;20.05;91.95
25161;BME280;13125;50.224;19.070;2022-07-06T02:46:03;98393.43;;;20.05;91.86
25161;BME280;13125;50.224;19.070;2022-07-06T02:47:35;98389.95;;;20.04;91.65
25161;BME280;13125;50.224;19.070;2022-07-06T02:49:08;98387.25;;;20.04;91.88
25161;BME280;13125;50.224;19.070;2022-07-06T02:50:40;98387.25;;;20.04;91.94
25161;BME280;13125;50.224;19.070;2022-07-06T02:52:13;98390.73;;;20.05;91.67
25161;BME280;13125;50.224;19.070;2022-07-06T02:53:43;98385.69;;;20.03;91.70
25161;BME280;13125;50.224;19.070;2022-07-06T02:55:15;98385.69;;;20.03;91.84
25161;BME280;13125;50.224;19.070;2022-07-06T02:56:47;98390.61;;;20.01;91.51
25161;BME280;13125;50.224;19.070;2022-07-06T02:58:21;98394.90;;;20.02;91.67
25161;BME280;13125;50.224;19.070;2022-07-06T02:59:58;98401.39;;;20.01;91.43
25161;BME280;13125;50.224;19.070;2022-07-06T03:01:33;98397.92;;;20.01;91.48
25161;BME280;13125;50.224;19.070;2022-07-06T03:03:05;98397.12;;;20.00;91.45
25161;BME280;13125;50.224;19.070;2022-07-06T03:04:36;98391.74;;;20.00;91.22
25161;BME280;13125;50.224;19.070;2022-07-06T03:06:08;98390.18;;;19.99;91.23
25161;BME280;13125;50.224;19.070;2022-07-06T03:07:43;98385.92;;;19.98;91.16
25161;BME280;13125;50.224;19.070;2022-07-06T03:09:12;98382.44;;;19.98;91.29
25161;BME280;13125;50.224;19.070;2022-07-06T03:10:46;98383.56;;;19.97;91.28
25161;BME280;13125;50.224;19.070;2022-07-06T03:12:21;98385.03;;;19.94;91.11
25161;BME280;13125;50.224;19.070;2022-07-06T03:13:53;98390.41;;;19.94;91.20
25161;BME280;13125;50.224;19.070;2022-07-06T03:15:25;98394.23;;;19.93;91.17
25161;BME280;13125;50.224;19.070;2022-07-06T03:16:57;98398.03;;;19.92;91.30
25161;BME280;13125;50.224;19.070;2022-07-06T03:18:30;98399.95;;;19.92;91.22
25161;BME280;13125;50.224;19.070;2022-07-06T03:20:04;98404.55;;;19.91;91.30
25161;BME280;13125;50.224;19.070;2022-07-06T03:21:40;98394.58;;;19.92;91.20
25161;BME280;13125;50.224;19.070;2022-07-06T03:23:10;98401.85;;;19.91;91.19
25161;BME280;13125;50.224;19.070;2022-07-06T03:24:42;98397.59;;;19.90;90.97
25161;BME280;13125;50.224;19.070;2022-07-06T03:26:18;98403.75;;;19.91;91.10
25161;BME280;13125;50.224;19.070;2022-07-06T03:27:52;98403.75;;;19.91;91.15
25161;BME280;13125;50.224;19.070;2022-07-06T03:29:27;98402.98;;;19.90;91.04
25161;BME280;13125;50.224;19.070;2022-07-06T03:30:56;98407.58;;;19.90;90.91
25161;BME280;13125;50.224;19.070;2022-07-06T03:32:28;98409.50;;;19.89;90.86
25161;BME280;13125;50.224;19.070;2022-07-06T03:34:03;98413.76;;;19.90;90.82
25161;BME280;13125;50.224;19.070;2022-07-06T03:35:38;98415.66;;;19.90;90.91
25161;BME280;13125;50.224;19.070;2022-07-06T03:37:11;98416.45;;;19.90;90.93
25161;BME280;13125;50.224;19.070;2022-07-06T03:38:46;98413.76;;;19.90;90.61
25161;BME280;13125;50.224;19.070;2022-07-06T03:40:16;98420.27;;;19.89;91.01
25161;BME280;13125;50.224;19.070;2022-07-06T03:41:49;98417.58;;;19.89;90.83
25161;BME280;13125;50.224;19.070;2022-07-06T03:43:19;98418.34;;;19.90;91.02
25161;BME280;13125;50.224;19.070;2022-07-06T03:44:49;98427.22;;;19.90;91.05
25161;BME280;13125;50.224;19.070;2022-07-06T03:46:21;98427.22;;;19.90;91.07
25161;BME280;13125;50.224;19.070;2022-07-06T03:47:56;98421.84;;;19.90;91.27
25161;BME280;13125;50.224;19.070;2022-07-06T03:49:28;98420.70;;;19.91;91.47
25161;BME280;13125;50.224;19.070;2022-07-06T03:51:01;98418.81;;;19.92;91.04
25161;BME280;13125;50.224;19.070;2022-07-06T03:52:30;98412.62;;;19.91;90.90
25161;BME280;13125;50.224;19.070;2022-07-06T03:54:03;98417.58;;;19.89;90.90
25161;BME280;13125;50.224;19.070;2022-07-06T03:55:33;98420.61;;;19.88;91.10
25161;BME280;13125;50.224;19.070;2022-07-06T03:57:05;98419.81;;;19.87;91.45
25161;BME280;13125;50.224;19.070;2022-07-06T03:58:37;98424.77;;;19.85;91.26
25161;BME280;13125;50.224;19.070;2022-07-06T04:00:10;98427.09;;;19.87;91.59
25161;BME280;13125;50.224;19.070;2022-07-06T04:01:44;98429.02;;;19.86;91.66
25161;BME280;13125;50.224;19.070;2022-07-06T04:03:14;98430.58;;;19.87;91.66
25161;BME280;13125;50.224;19.070;2022-07-06T04:04:48;98427.89;;;19.87;91.71
25161;BME280;13125;50.224;19.070;2022-07-06T04:06:18;98426.77;;;19.88;91.69
25161;BME280;13125;50.224;19.070;2022-07-06T04:07:49;98428.35;;;19.89;91.39
25161;BME280;13125;50.224;19.070;2022-07-06T04:09:19;98432.14;;;19.88;91.17
25161;BME280;13125;50.224;19.070;2022-07-06T04:10:49;98437.53;;;19.88;91.28
25161;BME280;13125;50.224;19.070;2022-07-06T04:12:18;98432.95;;;19.89;91.51
25161;BME280;13125;50.224;19.070;2022-07-06T04:13:52;98432.14;;;19.88;91.04
25161;BME280;13125;50.224;19.070;2022-07-06T04:15:22;98431.81;;;19.90;91.37
25161;BME280;13125;50.224;19.070;2022-07-06T04:16:52;98435.30;;;19.90;91.27
25161;BME280;13125;50.224;19.070;2022-07-06T04:18:24;98442.25;;;19.91;90.89
25161;BME280;13125;50.224;19.070;2022-07-06T04:19:57;98450.80;;;19.93;91.21
25161;BME280;13125;50.224;19.070;2022-07-06T04:21:27;98443.81;;;19.92;90.76
25161;BME280;13125;50.224;19.070;2022-07-06T04:23:02;98450.33;;;19.91;90.52
25161;BME280;13125;50.224;19.070;2022-07-06T04:24:37;98446.08;;;19.90;90.73
25161;BME280;13125;50.224;19.070;2022-07-06T04:26:10;98452.13;;;19.87;90.86
25161;BME280;13125;50.224;19.070;2022-07-06T04:27:43;98449.00;;;19.85;90.82
25161;BME280;13125;50.224;19.070;2022-07-06T04:29:17;98447.77;;;19.83;90.51
25161;BME280;13125;50.224;19.070;2022-07-06T04:30:52;98465.16;;;19.85;91.29
25161;BME280;13125;50.224;19.070;2022-07-06T04:32:24;98460.87;;;19.84;91.32
25161;BME280;13125;50.224;19.070;2022-07-06T04:33:55;98456.61;;;19.83;91.07
25161;BME280;13125;50.224;19.070;2022-07-06T04:35:25;98461.56;;;19.81;90.60
25161;BME280;13125;50.224;19.070;2022-07-06T04:36:58;98463.45;;;19.81;91.29
25161;BME280;13125;50.224;19.070;2022-07-06T04:38:33;98461.56;;;19.81;91.74
25161;BME280;13125;50.224;19.070;2022-07-06T04:40:07;98462.66;;;19.80;91.40
25161;BME280;13125;50.224;19.070;2022-07-06T04:41:43;98462.66;;;19.80;91.79
25161;BME280;13125;50.224;19.070;2022-07-06T04:43:16;98462.23;;;19.78;91.53
25161;BME280;13125;50.224;19.070;2022-07-06T04:44:49;98466.48;;;19.79;92.00
25161;BME280;13125;50.224;19.070;2022-07-06T04:46:24;98466.48;;;19.79;91.85
25161;BME280;13125;50.224;19.070;2022-07-06T04:47:56;98467.61;;;19.78;91.69
25161;BME280;13125;50.224;19.070;2022-07-06T04:49:28;98459.97;;;19.80;91.67
25161;BME280;13125;50.224;19.070;2022-07-06T04:50:58;98461.09;;;19.79;90.88
25161;BME280;13125;50.224;19.070;2022-07-06T04:52:31;98471.54;;;19.81;91.53
25161;BME280;13125;50.224;19.070;2022-07-06T04:54:04;98474.23;;;19.81;91.21
25161;BME280;13125;50.224;19.070;2022-07-06T04:55:35;98475.02;;;19.81;91.61
25161;BME280;13125;50.224;19.070;2022-07-06T04:57:06;98480.41;;;19.81;91.14
25161;BME280;13125;50.224;19.070;2022-07-06T04:58:38;98471.20;;;19.82;91.54
25161;BME280;13125;50.224;19.070;2022-07-06T05:00:12;98475.47;;;19.83;91.79
25161;BME280;13125;50.224;19.070;2022-07-06T05:01:43;98478.95;;;19.84;91.53
25161;BME280;13125;50.224;19.070;2022-07-06T05:03:16;98480.52;;;19.85;91.75
25161;BME280;13125;50.224;19.070;2022-07-06T05:04:48;98476.70;;;19.86;91.91
25161;BME280;13125;50.224;19.070;2022-07-06T05:06:23;98479.06;;;19.87;91.72
25161;BME280;13125;50.224;19.070;2022-07-06T05:07:56;98479.86;;;19.88;91.05
25161;BME280;13125;50.224;19.070;2022-07-06T05:09:25;98488.70;;;19.88;91.11
25161;BME280;13125;50.224;19.070;2022-07-06T05:10:58;98479.16;;;19.91;91.53
25161;BME280;13125;50.224;19.070;2022-07-06T05:12:33;98478.39;;;19.90;91.27
25161;BME280;13125;50.224;19.070;2022-07-06T05:14:08;98483.78;;;19.90;91.18
25161;BME280;13125;50.224;19.070;2022-07-06T05:15:37;98478.83;;;19.92;91.38
25161;BME280;13125;50.224;19.070;2022-07-06T05:17:10;98477.73;;;19.93;91.21
25161;BME280;13125;50.224;19.070;2022-07-06T05:18:40;98479.30;;;19.94;91.36
25161;BME280;13125;50.224;19.070;2022-07-06T05:20:10;98470.09;;;19.95;91.18
25161;BME280;13125;50.224;19.070;2022-07-06T05:21:43;98472.45;;;19.97;91.09
25161;BME280;13125;50.224;19.070;2022-07-06T05:23:13;98475.14;;;19.97;90.60
25161;BME280;13125;50.224;19.070;2022-07-06T05:24:45;98475.58;;;19.99;91.03
25161;BME280;13125;50.224;19.070;2022-07-06T05:26:20;98467.83;;;19.97;90.67
25161;BME280;13125;50.224;19.070;2022-07-06T05:27:52;98470.52;;;19.97;90.57
25161;BME280;13125;50.224;19.070;2022-07-06T05:29:28;98472.55;;;20.00;90.74
25161;BME280;13125;50.224;19.070;2022-07-06T05:31:07;98474.92;;;20.02;90.90
25161;BME280;13125;50.224;19.070;2022-07-06T05:32:39;98470.33;;;20.02;90.92
25161;BME280;13125;50.224;19.070;2022-07-06T05:34:11;98470.77;;;20.04;90.68
25161;BME280;13125;50.224;19.070;2022-07-06T05:35:44;98474.69;;;20.07;90.67
25161;BME280;13125;50.224;19.070;2022-07-06T05:37:19;98472.48;;;20.09;90.72
25161;BME280;13125;50.224;19.070;2022-07-06T05:38:56;98471.45;;;20.13;90.66
25161;BME280;13125;50.224;19.070;2022-07-06T05:40:32;98477.08;;;20.20;90.45
25161;BME280;13125;50.224;19.070;2022-07-06T05:42:07;98475.61;;;20.23;90.05
25161;BME280;13125;50.224;19.070;2022-07-06T05:43:42;98469.56;;;20.26;90.15
25161;BME280;13125;50.224;19.070;2022-07-06T05:45:18;98477.08;;;20.32;90.31
25161;BME280;13125;50.224;19.070;2022-07-06T05:46:50;98475.94;;;20.33;90.20
25161;BME280;13125;50.224;19.070;2022-07-06T05:48:25;98483.02;;;20.38;90.18
25161;BME280;13125;50.224;19.070;2022-07-06T05:49:55;98475.38;;;20.40;89.53
25161;BME280;13125;50.224;19.070;2022-07-06T05:51:31;98486.25;;;20.43;89.55
25161;BME280;13125;50.224;19.070;2022-07-06T05:53:02;98485.92;;;20.45;89.48
25161;BME280;13125;50.224;19.070;2022-07-06T05:54:30;98485.25;;;20.48;89.49
25161;BME280;13125;50.224;19.070;2022-07-06T05:56:00;98479.52;;;20.49;89.56
25161;BME280;13125;50.224;19.070;2022-07-06T05:57:30;98489.17;;;20.50;89.47
25161;BME280;13125;50.224;19.070;2022-07-06T05:59:06;98488.41;;;20.50;89.54
25161;BME280;13125;50.224;19.070;2022-07-06T06:00:35;98486.48;;;20.50;89.36
25161;BME280;13125;50.224;19.070;2022-07-06T06:02:08;98491.20;;;20.53;89.18
25161;BME280;13125;50.224;19.070;2022-07-06T06:03:43;98494.45;;;20.59;89.25
25161;BME280;13125;50.224;19.070;2022-07-06T06:05:18;98484.77;;;20.58;88.97
25161;BME280;13125;50.224;19.070;2022-07-06T06:06:47;98494.12;;;20.60;89.03
25161;BME280;13125;50.224;19.070;2022-07-06T06:08:19;98492.98;;;20.61;89.03
25161;BME280;13125;50.224;19.070;2022-07-06T06:09:49;98490.72;;;20.63;88.82
25161;BME280;13125;50.224;19.070;2022-07-06T06:11:27;98496.33;;;20.70;88.51
25161;BME280;13125;50.224;19.070;2022-07-06T06:12:57;98494.28;;;20.79;88.75
25161;BME280;13125;50.224;19.070;2022-07-06T06:14:27;98490.67;;;20.87;88.60
25161;BME280;13125;50.224;19.070;2022-07-06T06:15:57;98499.34;;;20.93;88.39
25161;BME280;13125;50.224;19.070;2022-07-06T06:17:29;98497.78;;;20.92;87.23
25161;BME280;13125;50.224;19.070;2022-07-06T06:18:59;98504.83;;;20.96;88.02
25161;BME280;13125;50.224;19.070;2022-07-06T06:20:29;98507.62;;;21.00;87.74
25161;BME280;13125;50.224;19.070;2022-07-06T06:21:59;98505.38;;;21.02;86.94
25161;BME280;13125;50.224;19.070;2022-07-06T06:23:29;98507.40;;;21.05;87.54
25161;BME280;13125;50.224;19.070;2022-07-06T06:25:04;98508.88;;;21.02;86.94
25161;BME280;13125;50.224;19.070;2022-07-06T06:26:34;98509.64;;;21.03;87.37
25161;BME280;13125;50.224;19.070;2022-07-06T06:28:08;98510.44;;;21.03;87.68
25161;BME280;13125;50.224;19.070;2022-07-06T06:29:39;98513.81;;;21.00;86.99
25161;BME280;13125;50.224;19.070;2022-07-06T06:31:12;98511.79;;;20.97;87.15
25161;BME280;13125;50.224;19.070;2022-07-06T06:32:45;98519.45;;;20.95;87.03
25161;BME280;13125;50.224;19.070;2022-07-06T06:34:20;98525.86;;;20.91;87.05
25161;BME280;13125;50.224;19.070;2022-07-06T06:35:53;98526.07;;;20.86;87.03
25161;BME280;13125;50.224;19.070;2022-07-06T06:37:24;98531.70;;;20.81;87.48
25161;BME280;13125;50.224;19.070;2022-07-06T06:39:02;98532.38;;;20.78;87.83
25161;BME280;13125;50.224;19.070;2022-07-06T06:40:31;98537.68;;;20.74;87.82
25161;BME280;13125;50.224;19.070;2022-07-06T06:42:04;98552.50;;;20.68;87.21
25161;BME280;13125;50.224;19.070;2022-07-06T06:43:38;98545.55;;;20.67;87.58
25161;BME280;13125;50.224;19.070;2022-07-06T06:45:08;98543.19;;;20.66;87.82
25161;BME280;13125;50.224;19.070;2022-07-06T06:46:41;98547.34;;;20.63;87.74
25161;BME280;13125;50.224;19.070;2022-07-06T06:48:12;98538.48;;;20.63;87.67
25161;BME280;13125;50.224;19.070;2022-07-06T06:49:42;98537.93;;;20.57;86.91
25161;BME280;13125;50.224;19.070;2022-07-06T06:51:15;98541.39;;;20.58;87.23
25161;BME280;13125;50.224;19.070;2022-07-06T06:52:49;98537.03;;;20.53;87.45
25161;BME280;13125;50.224;19.070;2022-07-06T06:54:19;98540.96;;;20.44;87.05
25161;BME280;13125;50.224;19.070;2022-07-06T06:55:51;98539.73;;;20.41;87.27
25161;BME280;13125;50.224;19.070;2022-07-06T06:57:21;98537.03;;;20.41;87.26
25161;BME280;13125;50.224;19.070;2022-07-06T06:58:52;98541.30;;;20.42;87.26
25161;BME280;13125;50.224;19.070;2022-07-06T07:00:26;98537.03;;;20.41;87.09
25161;BME280;13125;50.224;19.070;2022-07-06T07:01:56;98531.88;;;20.36;87.14
25161;BME280;13125;50.224;19.070;2022-07-06T07:03:29;98533.11;;;20.39;86.96
25161;BME280;13125;50.224;19.070;2022-07-06T07:05:05;98531.97;;;20.28;87.38
25161;BME280;13125;50.224;19.070;2022-07-06T07:06:37;98530.98;;;20.32;87.49
25161;BME280;13125;50.224;19.070;2022-07-06T07:08:12;98530.98;;;20.32;87.16
25161;BME280;13125;50.224;19.070;2022-07-06T07:09:46;98541.62;;;20.29;87.54
25161;BME280;13125;50.224;19.070;2022-07-06T07:11:19;98535.70;;;20.23;87.52
25161;BME280;13125;50.224;19.070;2022-07-06T07:22:46;98531.88;;;20.48;87.08
25161;BME280;13125;50.224;19.070;2022-07-06T07:23:58;98541.62;;;20.53;87.75
25161;BME280;13125;50.224;19.070;2022-07-06T07:25:28;98537.80;;;20.54;86.98
25161;BME280;13125;50.224;19.070;2022-07-06T07:27:00;98553.97;;;20.66;86.62
25161;BME280;13125;50.224;19.070;2022-07-06T07:28:32;98553.30;;;20.69;85.92
25161;BME280;13125;50.224;19.070;2022-07-06T07:30:06;98551.16;;;20.74;85.75
25161;BME280;13125;50.224;19.070;2022-07-06T07:31:38;98562.63;;;20.71;86.14
25161;BME280;13125;50.224;19.070;2022-07-06T07:33:07;98562.86;;;20.66;86.29
25161;BME280;13125;50.224;19.070;2022-07-06T07:34:36;98556.91;;;20.61;86.08
25161;BME280;13125;50.224;19.070;2022-07-06T07:36:11;98563.76;;;20.58;86.77
25161;BME280;13125;50.224;19.070;2022-07-06T07:37:41;98559.83;;;20.56;87.06
25161;BME280;13125;50.224;19.070;2022-07-06T07:39:11;98561.30;;;20.53;86.90
25161;BME280;13125;50.224;19.070;2022-07-06T07:40:41;98566.59;;;20.50;86.63
25161;BME280;13125;50.224;19.070;2022-07-06T07:42:13;98564.89;;;20.45;86.48
25161;BME280;13125;50.224;19.070;2022-07-06T07:43:46;98557.70;;;20.49;86.54
25161;BME280;13125;50.224;19.070;2022-07-06T07:45:18;98566.13;;;20.48;85.53
25161;BME280;13125;50.224;19.070;2022-07-06T07:46:51;98567.82;;;20.52;85.56
25161;BME280;13125;50.224;19.070;2022-07-06T07:48:24;98570.28;;;20.45;84.83
25161;BME280;13125;50.224;19.070;2022-07-06T07:49:57;98575.44;;;20.38;84.78
25161;BME280;13125;50.224;19.070;2022-07-06T07:51:29;98577.92;;;20.31;84.84
25161;BME280;13125;50.224;19.070;2022-07-06T07:53:04;98584.20;;;20.23;84.55
25161;BME280;13125;50.224;19.070;2022-07-06T07:54:36;98587.23;;;20.22;84.48
25161;BME280;13125;50.224;19.070;2022-07-06T07:56:06;98595.87;;;20.15;84.26
25161;BME280;13125;50.224;19.070;2022-07-06T07:57:38;98596.09;;;20.10;84.18
25161;BME280;13125;50.224;19.070;2022-07-06T07:59:08;98597.84;;;20.06;84.51
25161;BME280;13125;50.224;19.070;2022-07-06T08:00:41;98590.42;;;20.03;83.60
25161;BME280;13125;50.224;19.070;2022-07-06T08:02:14;98594.69;;;20.04;84.09
25161;BME280;13125;50.224;19.070;2022-07-06T08:03:47;98599.16;;;20.00;83.41
25161;BME280;13125;50.224;19.070;2022-07-06T08:05:16;98591.87;;;20.01;83.54
25161;BME280;13125;50.224;19.070;2022-07-06T08:06:49;98597.81;;;19.94;83.12
25161;BME280;13125;50.224;19.070;2022-07-06T08:08:21;98592.42;;;19.94;82.48
25161;BME280;13125;50.224;19.070;2022-07-06T08:09:51;98594.36;;;20.06;82.30
25161;BME280;13125;50.224;19.070;2022-07-06T08:11:23;98595.81;;;20.03;82.52
25161;BME280;13125;50.224;19.070;2022-07-06T08:12:53;98592.53;;;19.98;82.64